Ashley, OH

9:08 AM EDT on August 30, 2015 (GMT -0400)
Delaware Lake | | Change Station
CLOSE
Current Station
Personal Weather Station
Location: Delaware, OH
Elevation: 932 ft
Nearby Weather Stations

Elev 932 ft 40.37 °N, 83.03 °W | Updated 3 minutes ago

Rain
Rain
68.7 °F
Feels Like 68.7 °F
N
1.1
Wind Variable Wind from ESE

Today
High -- | Low -- °F
--% Chance of Precip.
Yesterday
High -- | Low -- °F
Precip. -- in
6:57 AM 8:07 PM
Full, 99% visible
Pressure 30.11 in
Visibility 5.0 miles
Clouds Scattered Clouds 7000 ft
Scattered Clouds 8500 ft
Mostly Cloudy 12000 ft
Dew Point 67 °F
Humidity 95%
Rainfall 0.00 in
Snow Depth Not available.
UV 1 out of 12
Pollen 10.00 out of 12
Air Quality Not available.
Flu Activity Not available.
METAR KDLZ 301258Z AUTO 00000KT 5SM -RA SCT070 SCT085 BKN120 19/18 A3011 RMK AO2
Pressure 30.11 in
Visibility 5.0 miles
Clouds Scattered Clouds 7000 ft
Scattered Clouds 8500 ft
Mostly Cloudy 12000 ft
Dew Point 67 °F
Humidity 95%
Rainfall 0.00 in
Snow Depth Not available.
UV 1 out of 12
Pollen 10.00 out of 12
Air Quality Not available.
Flu Activity Not available.
METAR KDLZ 301258Z AUTO 00000KT 5SM -RA SCT070 SCT085 BKN120 19/18 A3011 RMK AO2

10-Day Weather Forecast

×

Almanac

Astronomy

Aug. 30, 2015 Rise Set
Actual Time
Civil Twilight
Nautical Twilight
Astronomical Twilight
Moon
Length of Visible Light
Length of Day
Tomorrow will be .
, % of the Moon is Illuminated

Today's Extremes

State Highs State Lows

Community

WunderPhotos

Upload Photos

1,850,945 photos uploaded!

WunderBlogs® & News

Nearby

Air Quality

  Air Quality AQ Index Pollutant
Not available.

Snow Depth

Station Depth Elevation

Earthquake Activity

City Distance Mag. Time & Date
Minimum magnitude displayed is 2.5.

Coastal Water Temperatures

Place Temperature

Stations

Nearby Weather Stations

Station Location Temp. Windchill Dew Point Humidity Wind Precip. Elev Updated Type